33°C Temp
11°C Point de rosée
26% Humidité
Température
13 KM/H
8 MPH
7 KTS
140°
Sud Est

Vitesse du Vent
Clair
Préssion 1015.92 (hPa) - 30 (in)
Visibilité 6.2 (mi) - 10.0 (km)

Conditions Actuelles
LFBU
Location 6(km)
Metar :LFBU 241330Z AUTO 14007KT 100V200 CAVOK 33/11 Q1016 NOSIG
Dernière mise à jour: 24-08-2019 16:01

Aéroport
  Métar Aviation Données API fournies par https://www.checkwx.com/ PHP scripts by weather34.com ©2019